Lexington, KY (40502)

6:08 AM EDT on July 24, 2016 (GMT -0400)
Plainview | | Change Station

Elev 1001 ft 38.00 °N, 84.46 °W | Updated 12 minutes ago

Clear
Clear
73.8 °F
Feels Like 73.8 °F
N
0.0
Wind Variable Wind from South

Today
High -- | Low -- °F
--% Chance of Precip.
Yesterday
High -- | Low -- °F
Precip. -- in
Pressure 29.97 in
Visibility 8.0 miles
Clouds Clear
Dew Point 74 °F
Humidity 99%
Rainfall 0.00 in
Snow Depth Not available.
6:34 AM 8:53 PM
Waning Gibbous, 77% visible
METAR KLEX 240954Z 16004KT 8SM CLR 24/22 A3001 RMK AO2 SLP149 T02390222
Pressure 29.97 in
Visibility 8.0 miles
Clouds Clear
Dew Point 74 °F
Humidity 99%
Rainfall 0.00 in
Snow Depth Not available.
6:34 AM 8:53 PM
Waning Gibbous, 77% visible
METAR KLEX 240954Z 16004KT 8SM CLR 24/22 A3001 RMK AO2 SLP149 T02390222

10-Day Weather Forecast

Almanac

Astronomy

Jul. 24, 2016 Rise Set
Actual Time
Civil Twilight
Nautical Twilight
Astronomical Twilight
Moon
Length of Visible Light
Length of Day
Tomorrow will be .
, % of the Moon is Illuminated

Today's Extremes

State Highs State Lows

Community

WunderPhotos

Upload Photos

1,927,040 photos uploaded!

WunderBlog® & News

Nearby

Air Quality

  Air Quality AQ Index Pollutant
Not available.

Snow Depth

Station Depth Elevation

Earthquake Activity

City Distance Mag. Time & Date
Minimum magnitude displayed is 2.5.

Coastal Water Temperatures

Place Temperature

Stations

Nearby Weather Stations

Station Location Temp. Windchill Dew Point Humidity Wind Precip. Elev Updated Type
                   

Watches & Warnings

There are currently no watches in effect.